createdAt,value
2023-03-16T00:01:05.859Z,1.3
2023-03-16T00:02:12.813Z,1.3
2023-03-16T00:03:19.791Z,1.4
2023-03-16T00:04:29.345Z,1.4
2023-03-16T00:05:36.301Z,1.5
2023-03-16T00:06:43.201Z,1.4
2023-03-16T00:07:53.380Z,1.2
2023-03-16T00:09:00.260Z,1.3
2023-03-16T00:10:07.236Z,1.1
2023-03-16T00:11:14.365Z,1.3
2023-03-16T00:12:21.451Z,1
2023-03-16T00:13:28.462Z,1.1
2023-03-16T00:14:35.462Z,1.2
2023-03-16T00:15:42.471Z,1.3
2023-03-16T00:16:58.937Z,1.3
2023-03-16T00:18:05.881Z,1.4
2023-03-16T00:19:12.842Z,1.4
2023-03-16T00:20:19.737Z,1.4
2023-03-16T00:21:30.641Z,1.4
2023-03-16T00:22:38.697Z,1.4
2023-03-16T00:23:49.195Z,1.4
2023-03-16T00:24:56.927Z,1.4
2023-03-16T00:26:03.865Z,1.4
2023-03-16T00:27:10.762Z,1.4
2023-03-16T00:28:20.384Z,1.5
2023-03-16T00:29:27.512Z,1.4
2023-03-16T00:30:35.183Z,1.4
2023-03-16T00:31:45.373Z,1.4
2023-03-16T00:32:52.270Z,1.4
2023-03-16T00:34:01.229Z,1.4
2023-03-16T00:35:09.604Z,1.4
2023-03-16T00:36:15.260Z,1.4
2023-03-16T00:37:22.103Z,1.4
2023-03-16T00:38:28.940Z,1.4
2023-03-16T00:39:35.923Z,1.4
2023-03-16T00:40:42.898Z,1.3
2023-03-16T00:41:49.854Z,1.3
2023-03-16T00:42:56.723Z,1.3
2023-03-16T00:44:03.734Z,1.3
2023-03-16T00:45:10.601Z,1.3
2023-03-16T00:46:17.563Z,1.2
2023-03-16T00:47:24.497Z,1.2
2023-03-16T00:48:31.422Z,1.2
2023-03-16T00:49:41.466Z,1.2
2023-03-16T00:50:52.362Z,1.2
2023-03-16T00:52:00.244Z,1.2
2023-03-16T00:53:11.940Z,1.1
2023-03-16T00:54:19.132Z,1.1
2023-03-16T00:55:26.556Z,1.1
2023-03-16T00:56:33.921Z,1.1
2023-03-16T00:57:41.477Z,1.1
2023-03-16T00:58:48.667Z,1.1
2023-03-16T00:59:55.781Z,1.1
2023-03-16T01:01:02.962Z,1.1
2023-03-16T01:02:10.129Z,1.1
2023-03-16T01:03:17.284Z,1.1
2023-03-16T01:04:24.226Z,1.1
2023-03-16T01:05:31.465Z,1.1
2023-03-16T01:06:39.887Z,1.1
2023-03-16T01:07:45.830Z,1
2023-03-16T01:08:53.013Z,1.1
2023-03-16T01:10:04.366Z,1
2023-03-16T01:11:11.587Z,1
2023-03-16T01:12:19.279Z,1
2023-03-16T01:13:26.273Z,1
2023-03-16T01:14:33.151Z,1
2023-03-16T01:15:40.165Z,1
2023-03-16T01:16:47.498Z,1
2023-03-16T01:17:56.273Z,1
2023-03-16T01:19:03.478Z,1
2023-03-16T01:20:12.801Z,1
2023-03-16T01:21:19.726Z,1
2023-03-16T01:22:27.649Z,1
2023-03-16T01:23:34.553Z,1
2023-03-16T01:24:41.481Z,0.9
2023-03-16T01:25:48.386Z,0.9
2023-03-16T01:26:58.212Z,1
2023-03-16T01:28:05.157Z,1
2023-03-16T01:29:12.103Z,1
2023-03-16T01:30:22.510Z,1
2023-03-16T01:31:29.323Z,0.9
2023-03-16T01:32:37.964Z,0.9
2023-03-16T01:33:46.672Z,0.9
2023-03-16T01:34:53.622Z,0.9
2023-03-16T01:36:01.694Z,0.9
2023-03-16T01:37:09.555Z,0.9
2023-03-16T01:38:18.561Z,0.9
2023-03-16T01:39:26.411Z,0.8
2023-03-16T01:40:35.058Z,0.8
2023-03-16T01:41:41.896Z,0.8
2023-03-16T01:42:51.315Z,0.8
2023-03-16T01:44:03.150Z,0.8
2023-03-16T01:45:10.666Z,0.8
2023-03-16T01:46:27.831Z,0.8
2023-03-16T01:47:37.340Z,0.8
2023-03-16T01:48:44.188Z,0.8
2023-03-16T01:50:01.181Z,0.5
2023-03-16T01:51:08.117Z,0.5
2023-03-16T01:52:16.298Z,0.6
2023-03-16T01:53:23.191Z,0.6
2023-03-16T01:54:31.809Z,0.6
2023-03-16T01:55:43.847Z,0.6
2023-03-16T01:56:50.853Z,0.7
2023-03-16T01:58:08.430Z,0.7
2023-03-16T01:59:15.396Z,0.7
2023-03-16T02:00:29.481Z,0.7
2023-03-16T02:01:39.008Z,0.6
2023-03-16T02:02:53.714Z,0.5
2023-03-16T02:04:03.325Z,0.6
2023-03-16T02:05:17.063Z,0.6
2023-03-16T02:06:28.946Z,0.5
2023-03-16T02:07:37.794Z,0.5
2023-03-16T02:08:44.635Z,0.6
2023-03-16T02:09:52.482Z,0.5
2023-03-16T02:11:00.212Z,0.5
2023-03-16T02:12:07.068Z,0.5
2023-03-16T02:13:13.954Z,0.6
2023-03-16T02:14:20.803Z,0.5
2023-03-16T02:15:27.640Z,0.5
2023-03-16T02:16:35.320Z,0.5
2023-03-16T02:17:42.199Z,0.6
2023-03-16T02:18:49.101Z,0.6
2023-03-16T02:19:55.940Z,0.6
2023-03-16T02:21:12.886Z,0.5
2023-03-16T02:22:22.852Z,0.5
2023-03-16T02:23:30.764Z,0.4
2023-03-16T02:24:37.703Z,0.4
2023-03-16T02:25:44.607Z,0.4
2023-03-16T02:26:56.508Z,0.4
2023-03-16T02:28:06.746Z,0.4
2023-03-16T02:29:14.105Z,0.4
2023-03-16T02:30:27.386Z,0.4
2023-03-16T02:31:36.375Z,0.3
2023-03-16T02:32:43.303Z,0.1
2023-03-16T02:33:52.777Z,0.2
2023-03-16T02:34:59.665Z,0.2
2023-03-16T02:36:15.596Z,0.2
2023-03-16T02:37:22.631Z,0.3
2023-03-16T02:38:33.487Z,0.3
2023-03-16T02:39:42.490Z,0.3
2023-03-16T02:40:49.367Z,0.3
2023-03-16T02:42:01.586Z,0.2
2023-03-16T02:43:11.483Z,0.1
2023-03-16T02:44:21.165Z,0.2
2023-03-16T02:45:33.938Z,0.1
2023-03-16T02:46:46.886Z,0
2023-03-16T02:47:53.814Z,-0.1
2023-03-16T02:49:01.106Z,0
2023-03-16T02:50:10.725Z,-0.1
2023-03-16T02:51:17.629Z,0
2023-03-16T02:52:24.456Z,-0.1
2023-03-16T02:53:31.449Z,-0.1
2023-03-16T02:54:38.428Z,0.1
2023-03-16T02:55:45.406Z,0.1
2023-03-16T02:56:53.198Z,0
2023-03-16T02:58:00.674Z,0
2023-03-16T02:59:08.032Z,0
2023-03-16T03:00:16.661Z,0
2023-03-16T03:01:23.751Z,-0.1
2023-03-16T03:02:30.924Z,-0.1
2023-03-16T03:03:40.072Z,-0.1
2023-03-16T03:04:48.147Z,0
2023-03-16T03:05:55.250Z,0
2023-03-16T03:07:05.076Z,0.1
2023-03-16T03:08:13.030Z,0.1
2023-03-16T03:09:19.899Z,0.1
2023-03-16T03:10:30.710Z,0.1
2023-03-16T03:11:38.801Z,0.1
2023-03-16T03:12:48.130Z,0.2
2023-03-16T03:13:54.985Z,0.3
2023-03-16T03:15:04.850Z,0.3
2023-03-16T03:16:13.243Z,0.3
2023-03-16T03:17:20.201Z,0.2
2023-03-16T03:18:27.509Z,0.3
2023-03-16T03:19:35.027Z,0.3
2023-03-16T03:20:44.160Z,0.3
2023-03-16T03:21:54.731Z,0.3
2023-03-16T03:23:03.482Z,0.4
2023-03-16T03:24:10.522Z,0.4
2023-03-16T03:25:17.913Z,0.4
2023-03-16T03:26:28.769Z,0.5
2023-03-16T03:27:37.376Z,0.5
2023-03-16T03:28:44.298Z,0.4
2023-03-16T03:29:51.315Z,0.4
2023-03-16T03:30:59.084Z,0.3
2023-03-16T03:32:06.763Z,0.3
2023-03-16T03:33:19.082Z,0.3
2023-03-16T03:34:26.173Z,0.4
2023-03-16T03:35:33.232Z,0.4
2023-03-16T03:36:41.619Z,0.4
2023-03-16T03:37:48.637Z,0.4
2023-03-16T03:38:55.831Z,0.4
2023-03-16T03:40:03.049Z,0.4
2023-03-16T03:41:11.011Z,0.4
2023-03-16T03:42:18.483Z,0.4
2023-03-16T03:43:25.444Z,0.4
2023-03-16T03:44:32.448Z,0.5
2023-03-16T03:45:39.444Z,0.5
2023-03-16T03:46:46.647Z,0.5
2023-03-16T03:47:53.379Z,0.5
2023-03-16T03:49:00.404Z,0.5
2023-03-16T03:50:07.399Z,0.4
2023-03-16T03:51:14.416Z,0.4
2023-03-16T03:52:22.794Z,0.4
2023-03-16T03:53:30.913Z,0.4
2023-03-16T03:54:38.918Z,0.4
2023-03-16T03:55:45.866Z,0.3
2023-03-16T03:56:52.788Z,0.4
2023-03-16T03:58:00.232Z,0.3
2023-03-16T03:59:07.225Z,0.3
2023-03-16T04:00:14.233Z,0.3
2023-03-16T04:01:21.313Z,0.3
2023-03-16T04:02:28.500Z,0.4
2023-03-16T04:03:35.363Z,0.4
2023-03-16T04:04:42.371Z,0.4
2023-03-16T04:05:49.338Z,0.4
2023-03-16T04:06:56.358Z,0.3
2023-03-16T04:08:03.335Z,0.3
2023-03-16T04:09:10.269Z,0.3
2023-03-16T04:10:18.417Z,0.3
2023-03-16T04:11:25.383Z,0.3
2023-03-16T04:12:32.345Z,0.2
2023-03-16T04:13:41.479Z,0.2
2023-03-16T04:14:48.605Z,0.2
2023-03-16T04:15:55.565Z,0.2
2023-03-16T04:17:05.514Z,0.2
2023-03-16T04:18:16.337Z,0.2
2023-03-16T04:19:24.252Z,0.2
2023-03-16T04:20:33.903Z,0.2
2023-03-16T04:21:40.937Z,0.1
2023-03-16T04:22:48.821Z,0.1
2023-03-16T04:23:55.802Z,0.1
2023-03-16T04:25:03.557Z,0.1
2023-03-16T04:26:14.167Z,0.1
2023-03-16T04:27:24.066Z,0.1
2023-03-16T04:28:31.214Z,0.1
2023-03-16T04:29:43.009Z,0.1
2023-03-16T04:30:54.326Z,0
2023-03-16T04:32:04.226Z,0.1
2023-03-16T04:33:11.225Z,0.1
2023-03-16T04:34:18.898Z,0.1
2023-03-16T04:35:25.886Z,0.1
2023-03-16T04:36:35.895Z,0.1
2023-03-16T04:37:47.026Z,0.1
2023-03-16T04:38:54.056Z,0.1
2023-03-16T04:40:00.940Z,0.1
2023-03-16T04:41:08.057Z,0.1
2023-03-16T04:42:15.007Z,0.1
2023-03-16T04:43:22.130Z,0.1
2023-03-16T04:44:29.874Z,0.1
2023-03-16T04:45:37.648Z,0
2023-03-16T04:46:44.636Z,0
2023-03-16T04:47:51.723Z,0
2023-03-16T04:48:58.844Z,0
2023-03-16T04:50:11.999Z,0
2023-03-16T04:51:22.206Z,0
2023-03-16T04:52:33.684Z,0
2023-03-16T04:53:41.000Z,-0.1
2023-03-16T04:54:50.130Z,-0.1
2023-03-16T04:55:57.133Z,-0.1
2023-03-16T04:57:04.879Z,-0.1
2023-03-16T04:58:14.489Z,-0.1
2023-03-16T04:59:24.653Z,-0.1
2023-03-16T05:00:31.648Z,-0.1
2023-03-16T05:01:38.772Z,-0.1
2023-03-16T05:02:45.698Z,-0.2
2023-03-16T05:03:55.129Z,-0.2
2023-03-16T05:05:03.092Z,-0.2
2023-03-16T05:06:10.145Z,-0.2
2023-03-16T05:07:17.065Z,-0.2
2023-03-16T05:08:28.589Z,-0.2
2023-03-16T05:09:35.547Z,-0.2
2023-03-16T05:10:45.714Z,-0.2
2023-03-16T05:11:53.531Z,-0.2
2023-03-16T05:13:00.550Z,-0.2
2023-03-16T05:14:10.322Z,-0.1
2023-03-16T05:15:21.144Z,-0.1
2023-03-16T05:16:28.204Z,-0.1
2023-03-16T05:17:35.054Z,-0.2
2023-03-16T05:18:41.996Z,-0.2
2023-03-16T05:19:48.982Z,-0.2
2023-03-16T05:20:56.924Z,-0.2
2023-03-16T05:22:03.947Z,-0.2
2023-03-16T05:23:12.863Z,-0.1
2023-03-16T05:24:21.554Z,-0.2
2023-03-16T05:25:28.471Z,-0.2
2023-03-16T05:26:35.475Z,-0.2
2023-03-16T05:27:47.517Z,-0.2
2023-03-16T05:28:54.475Z,-0.2
2023-03-16T05:30:03.723Z,-0.2
2023-03-16T05:31:10.981Z,-0.1
2023-03-16T05:32:18.005Z,-0.1
2023-03-16T05:33:28.223Z,-0.1
2023-03-16T05:34:35.631Z,-0.1
2023-03-16T05:35:42.998Z,-0.1
2023-03-16T05:36:49.962Z,-0.1
2023-03-16T05:37:59.617Z,-0.1
2023-03-16T05:39:07.600Z,-0.1
2023-03-16T05:40:17.703Z,-0.1
2023-03-16T05:41:29.272Z,-0.1
2023-03-16T05:42:37.012Z,-0.1
2023-03-16T05:43:43.896Z,-0.1
2023-03-16T05:44:51.224Z,0
2023-03-16T05:45:58.317Z,0
2023-03-16T05:47:06.320Z,0.1
2023-03-16T05:48:13.127Z,0.1
2023-03-16T05:49:22.891Z,0.1
2023-03-16T05:50:31.017Z,0.1
2023-03-16T05:51:37.571Z,0.1
2023-03-16T05:52:44.976Z,0.2
2023-03-16T05:53:51.983Z,0.2
2023-03-16T05:55:01.656Z,0.3
2023-03-16T05:56:08.839Z,0.3
2023-03-16T05:57:15.762Z,0.3
2023-03-16T05:58:22.734Z,0.3
2023-03-16T05:59:29.646Z,0.3
2023-03-16T06:00:37.814Z,0.2
2023-03-16T06:01:45.274Z,0.1
2023-03-16T06:02:52.400Z,-0.1
2023-03-16T06:04:01.572Z,0
2023-03-16T06:05:11.250Z,0
2023-03-16T06:06:19.286Z,0.2
2023-03-16T06:07:29.105Z,0.2
2023-03-16T06:08:33.839Z,0.3
2023-03-16T06:09:43.074Z,0.3
2023-03-16T06:10:52.750Z,0.1
2023-03-16T06:11:59.696Z,0
2023-03-16T06:13:10.125Z,0.1
2023-03-16T06:14:17.109Z,0.1
2023-03-16T06:15:24.259Z,0.1
2023-03-16T06:16:32.078Z,0.3
2023-03-16T06:17:39.016Z,0.3
2023-03-16T06:18:45.925Z,0.3
2023-03-16T06:19:56.202Z,0.3
2023-03-16T06:21:04.049Z,0.4
2023-03-16T06:22:14.110Z,0.4
2023-03-16T06:23:23.515Z,0.3
2023-03-16T06:24:31.213Z,0.3
2023-03-16T06:25:41.545Z,0.4
2023-03-16T06:26:48.487Z,0.4
2023-03-16T06:27:55.562Z,0.4
2023-03-16T06:29:03.102Z,0.5
2023-03-16T06:30:10.096Z,0.5
2023-03-16T06:31:20.849Z,0.6
2023-03-16T06:32:28.848Z,0.6
2023-03-16T06:33:36.671Z,0.7
2023-03-16T06:34:43.782Z,0.8
2023-03-16T06:35:51.536Z,0.7
2023-03-16T06:37:01.572Z,0.7
2023-03-16T06:38:08.999Z,0.8
2023-03-16T06:39:19.274Z,0.9
2023-03-16T06:40:27.671Z,0.9
2023-03-16T06:41:34.316Z,0.9
2023-03-16T06:42:42.208Z,0.8
2023-03-16T06:43:51.435Z,0.9
2023-03-16T06:44:58.441Z,0.9
2023-03-16T06:46:06.360Z,0.9
2023-03-16T06:47:14.138Z,0.8
2023-03-16T06:48:22.433Z,0.9
2023-03-16T06:49:29.821Z,0.9
2023-03-16T06:50:37.005Z,1
2023-03-16T06:51:44.027Z,1
2023-03-16T06:52:50.944Z,1.1
2023-03-16T06:53:57.953Z,0.9
2023-03-16T06:55:05.932Z,1
2023-03-16T06:56:12.969Z,1.1
2023-03-16T06:57:23.798Z,1
2023-03-16T06:58:30.814Z,0.8
2023-03-16T06:59:40.352Z,1
2023-03-16T07:00:51.199Z,1.1
2023-03-16T07:02:02.630Z,1.1
2023-03-16T07:03:10.301Z,0.9
2023-03-16T07:04:18.393Z,1
2023-03-16T07:05:25.323Z,1
2023-03-16T07:06:34.752Z,1.2
2023-03-16T07:07:42.187Z,1.2
2023-03-16T07:08:50.873Z,1.2
2023-03-16T07:09:58.371Z,1
2023-03-16T07:11:05.534Z,1.2
2023-03-16T07:12:12.960Z,1.1
2023-03-16T07:13:23.464Z,1.1
2023-03-16T07:14:31.422Z,1.6
2023-03-16T07:15:38.369Z,1.6
2023-03-16T07:16:47.671Z,1.9
2023-03-16T07:17:55.801Z,2
2023-03-16T07:19:02.833Z,1.9
2023-03-16T07:20:13.361Z,1.9
2023-03-16T07:21:23.136Z,2.1
2023-03-16T07:22:30.217Z,2.1
2023-03-16T07:23:37.215Z,2.2
2023-03-16T07:24:50.160Z,2.3
2023-03-16T07:25:57.646Z,2.5
2023-03-16T07:27:04.393Z,2.3
2023-03-16T07:28:11.494Z,2.3
2023-03-16T07:29:18.431Z,2.4
2023-03-16T07:30:26.761Z,2.4
2023-03-16T07:31:35.660Z,2.4
2023-03-16T07:32:43.498Z,2.5
2023-03-16T07:33:54.042Z,2.5
2023-03-16T07:35:01.086Z,2.6
2023-03-16T07:36:13.130Z,2.2
2023-03-16T07:37:25.223Z,2.1
2023-03-16T07:38:29.557Z,2.2
2023-03-16T07:39:37.090Z,2.4
2023-03-16T07:40:44.695Z,2.5
2023-03-16T07:41:53.519Z,2.5
2023-03-16T07:43:01.130Z,2.7
2023-03-16T07:44:09.613Z,3
2023-03-16T07:45:17.411Z,2.9
2023-03-16T07:46:24.381Z,3.1
2023-03-16T07:47:32.178Z,3.3
2023-03-16T07:48:40.009Z,3.2
2023-03-16T07:49:46.995Z,3.4
2023-03-16T07:50:54.258Z,3.4
2023-03-16T07:52:03.082Z,3.6
2023-03-16T07:53:10.078Z,3.7
2023-03-16T07:54:18.213Z,3.8
2023-03-16T07:55:29.645Z,4.1
2023-03-16T07:56:48.169Z,3.7
2023-03-16T07:57:44.353Z,3.6
2023-03-16T07:58:51.474Z,3.6
2023-03-16T07:59:58.602Z,3.6
2023-03-16T08:01:05.649Z,3.7
2023-03-16T08:02:12.641Z,4.2
2023-03-16T08:03:22.175Z,4.4
2023-03-16T08:04:33.176Z,4.7
2023-03-16T08:05:43.305Z,4.6
2023-03-16T08:06:53.466Z,4.6
2023-03-16T08:08:00.517Z,4.6
2023-03-16T08:09:11.551Z,4.5
2023-03-16T08:10:21.579Z,4.2
2023-03-16T08:11:28.970Z,4.2
2023-03-16T08:12:35.949Z,3.9
2023-03-16T08:13:43.748Z,4.3
2023-03-16T08:14:51.494Z,4.2
2023-03-16T08:16:02.215Z,4.5
2023-03-16T08:17:08.963Z,4.6
2023-03-16T08:18:16.658Z,4.5
2023-03-16T08:19:25.300Z,4.5
2023-03-16T08:20:32.676Z,4.4
2023-03-16T08:21:59.943Z,4.3
2023-03-16T08:22:49.677Z,4.1
2023-03-16T08:23:56.579Z,4.3
2023-03-16T08:25:03.649Z,4.3
2023-03-16T08:26:10.948Z,4.6
2023-03-16T08:27:19.143Z,4.8
2023-03-16T08:28:28.380Z,4.9
2023-03-16T08:29:35.369Z,4.9
2023-03-16T08:30:42.360Z,4.8
2023-03-16T08:31:49.288Z,4.9
2023-03-16T08:32:57.467Z,4.7
2023-03-16T08:34:04.649Z,4.5
2023-03-16T08:35:11.892Z,4.7
2023-03-16T08:36:22.806Z,4.9
2023-03-16T08:37:29.989Z,4.8
2023-03-16T08:38:40.536Z,5
2023-03-16T08:39:49.617Z,5
2023-03-16T08:41:00.296Z,4.7
2023-03-16T08:42:08.185Z,4.6
2023-03-16T08:43:15.282Z,4.5
2023-03-16T08:44:22.866Z,4.7
2023-03-16T08:45:30.633Z,4.7
2023-03-16T08:46:37.776Z,4.6
2023-03-16T08:47:46.986Z,4.9
2023-03-16T08:48:53.910Z,5.1
2023-03-16T08:50:03.717Z,5.1
2023-03-16T08:51:11.204Z,5
2023-03-16T08:52:18.119Z,5
2023-03-16T08:53:25.084Z,5.1
2023-03-16T08:54:32.025Z,5
2023-03-16T08:55:39.491Z,5.1
2023-03-16T08:56:46.439Z,5.1
2023-03-16T08:57:53.648Z,5
2023-03-16T08:59:00.579Z,5
2023-03-16T09:00:07.924Z,4.9
2023-03-16T09:01:17.770Z,5
2023-03-16T09:02:26.717Z,5
2023-03-16T09:03:33.979Z,5.1
2023-03-16T09:04:41.050Z,5.1
2023-03-16T09:05:49.671Z,5
2023-03-16T09:07:08.227Z,5.1
2023-03-16T09:08:06.858Z,5.2
2023-03-16T09:09:16.831Z,5.4
2023-03-16T09:10:24.959Z,5.6
2023-03-16T09:11:33.712Z,5.6
2023-03-16T09:12:44.304Z,5.5
2023-03-16T09:13:53.593Z,5.3
2023-03-16T09:15:02.151Z,5.1
2023-03-16T09:16:10.202Z,5.2
2023-03-16T09:17:18.248Z,5.2
2023-03-16T09:18:26.033Z,5.3
2023-03-16T09:19:49.892Z,5.2
2023-03-16T09:20:40.277Z,5
2023-03-16T09:21:47.461Z,4.8
2023-03-16T09:22:53.676Z,4.4
2023-03-16T09:24:00.530Z,4.3
2023-03-16T09:25:07.453Z,4.5
2023-03-16T09:26:14.379Z,4.5
2023-03-16T09:27:21.289Z,4.6
2023-03-16T09:28:28.017Z,4.8
2023-03-16T09:29:34.904Z,5
2023-03-16T09:30:41.747Z,5.3
2023-03-16T09:31:48.781Z,5.3
2023-03-16T09:32:55.610Z,5.5
2023-03-16T09:34:02.538Z,5.5
2023-03-16T09:35:10.403Z,5.5
2023-03-16T09:36:17.237Z,5.8
2023-03-16T09:37:24.918Z,6.1
2023-03-16T09:38:31.900Z,6.2
2023-03-16T09:39:42.019Z,6.1
2023-03-16T09:40:49.077Z,6.1
2023-03-16T09:41:58.731Z,5.9
2023-03-16T09:43:05.704Z,5.8
2023-03-16T09:44:22.837Z,5.4
2023-03-16T09:45:30.119Z,5.4
2023-03-16T09:46:44.517Z,5.2
2023-03-16T09:47:51.297Z,5.3
2023-03-16T09:48:58.312Z,5.4
2023-03-16T09:50:05.331Z,5.4
2023-03-16T09:51:12.364Z,5.5
2023-03-16T09:52:19.223Z,5.4
2023-03-16T09:53:28.803Z,5.5
2023-03-16T09:54:35.631Z,5.5
2023-03-16T09:55:45.194Z,5.2
2023-03-16T09:56:52.248Z,5.2
2023-03-16T09:57:59.179Z,5
2023-03-16T09:59:08.490Z,5.1
2023-03-16T10:00:14.871Z,5.1
2023-03-16T10:01:22.045Z,5.3
2023-03-16T10:02:36.760Z,5.4
2023-03-16T10:03:53.917Z,5.6
2023-03-16T10:05:03.635Z,5.8
2023-03-16T10:06:13.231Z,6.1
2023-03-16T10:07:20.184Z,6.3
2023-03-16T10:08:32.197Z,6.2
2023-03-16T10:09:44.212Z,5.9
2023-03-16T10:10:56.214Z,6
2023-03-16T10:12:10.867Z,6.3
2023-03-16T10:13:17.747Z,6.5
2023-03-16T10:14:28.869Z,6.6
2023-03-16T10:15:45.801Z,6.7
2023-03-16T10:16:52.810Z,6.5
2023-03-16T10:18:02.413Z,6.7
2023-03-16T10:19:19.757Z,6.3
2023-03-16T10:20:26.857Z,6.2
2023-03-16T10:21:35.462Z,6.1
2023-03-16T10:22:43.733Z,5.7
2023-03-16T10:23:50.694Z,5.9
2023-03-16T10:25:00.395Z,5.7
2023-03-16T10:26:12.457Z,5.8
2023-03-16T10:27:21.930Z,6.1
2023-03-16T10:28:31.747Z,6.2
2023-03-16T10:29:38.700Z,6.2
2023-03-16T10:30:45.512Z,6.4
2023-03-16T10:31:52.464Z,6.2
2023-03-16T10:33:00.202Z,6
2023-03-16T10:34:18.174Z,6
2023-03-16T10:35:29.898Z,6.1
2023-03-16T10:36:42.543Z,6.3
2023-03-16T10:37:49.911Z,6.2
2023-03-16T10:38:57.861Z,6.2
2023-03-16T10:40:08.381Z,6.8
2023-03-16T10:41:16.269Z,6.7
2023-03-16T10:42:28.852Z,6.6
2023-03-16T10:43:36.790Z,6.5
2023-03-16T10:44:45.030Z,6.2
2023-03-16T10:45:53.099Z,6.2
2023-03-16T10:47:04.310Z,6.4
2023-03-16T10:48:12.440Z,6.1
2023-03-16T10:49:20.371Z,6
2023-03-16T10:50:33.277Z,5.9
2023-03-16T10:51:40.992Z,5.9
2023-03-16T10:52:48.726Z,5.8
2023-03-16T10:53:56.503Z,5.9
2023-03-16T10:55:06.638Z,6
2023-03-16T10:56:15.728Z,5.7
2023-03-16T10:57:23.658Z,5.6
2023-03-16T10:58:34.923Z,5.5
2023-03-16T10:59:48.215Z,5.4
2023-03-16T11:01:02.202Z,5.6
2023-03-16T11:02:20.268Z,5.8
2023-03-16T11:03:31.287Z,5.7
2023-03-16T11:04:41.678Z,5.6
2023-03-16T11:05:49.609Z,5.6
2023-03-16T11:07:02.688Z,6.1
2023-03-16T11:08:10.704Z,6.1
2023-03-16T11:09:20.975Z,6.4
2023-03-16T11:10:46.221Z,6.8
2023-03-16T11:11:46.550Z,6.6
2023-03-16T11:13:00.347Z,6.3
2023-03-16T11:14:09.909Z,6.4
2023-03-16T11:15:26.010Z,6.5
2023-03-16T11:16:37.489Z,6.6
2023-03-16T11:17:45.913Z,6.4
2023-03-16T11:18:58.679Z,6.5
2023-03-16T11:20:06.018Z,6.5
2023-03-16T11:21:14.138Z,6.3
2023-03-16T11:22:29.649Z,6.4
2023-03-16T11:23:43.243Z,6.7
2023-03-16T11:24:53.424Z,6.8
2023-03-16T11:26:07.337Z,6.7
2023-03-16T11:27:14.483Z,6.7
2023-03-16T11:28:27.055Z,6.6
2023-03-16T11:29:39.016Z,6.2
2023-03-16T11:30:55.415Z,6
2023-03-16T11:32:14.166Z,5.7
2023-03-16T11:33:27.777Z,5.7
2023-03-16T11:34:35.215Z,5.6
2023-03-16T11:35:58.239Z,5.7
2023-03-16T11:36:57.889Z,5.8
2023-03-16T11:38:15.480Z,5.7
2023-03-16T11:39:33.013Z,5.9
2023-03-16T11:40:39.921Z,5.9
2023-03-16T11:41:52.181Z,5.8
2023-03-16T11:43:02.172Z,5.7
2023-03-16T11:44:12.185Z,5.8
2023-03-16T11:45:30.626Z,5.9
2023-03-16T11:46:37.095Z,6
2023-03-16T11:47:49.865Z,6.1
2023-03-16T11:49:02.673Z,5.7
2023-03-16T11:50:12.421Z,5.6
2023-03-16T11:51:29.609Z,5.6
2023-03-16T11:52:50.216Z,5.5
2023-03-16T11:54:07.474Z,5.6
2023-03-16T11:55:17.164Z,5.6
2023-03-16T11:56:27.267Z,5.5
2023-03-16T11:57:39.360Z,5.7
2023-03-16T11:58:54.138Z,5.8
2023-03-16T12:00:06.384Z,5.9
2023-03-16T12:01:21.708Z,6
2023-03-16T12:02:38.846Z,6.2
2023-03-16T12:03:45.495Z,6
2023-03-16T12:04:58.227Z,5.9
2023-03-16T12:06:22.826Z,6.3
2023-03-16T12:07:30.390Z,6.2
2023-03-16T12:08:46.255Z,6.2
2023-03-16T12:09:57.087Z,6.4
2023-03-16T12:11:12.153Z,5.9
2023-03-16T12:12:27.039Z,5.7
2023-03-16T12:13:41.644Z,5.9
2023-03-16T12:14:48.469Z,6.2
2023-03-16T12:16:05.844Z,6.3
2023-03-16T12:17:13.805Z,6.4
2023-03-16T12:18:24.467Z,6.6
2023-03-16T12:19:34.401Z,6.5
2023-03-16T12:20:46.565Z,6.6
2023-03-16T12:21:53.388Z,6.7
2023-03-16T12:23:06.016Z,6.6
2023-03-16T12:24:18.820Z,6.5
2023-03-16T12:25:25.697Z,6.2
2023-03-16T12:26:34.347Z,6.3
2023-03-16T12:27:41.186Z,6.3
2023-03-16T12:28:48.083Z,6.1
2023-03-16T12:29:54.915Z,5.9
2023-03-16T12:31:07.001Z,6.2
2023-03-16T12:32:18.992Z,6.3
2023-03-16T12:33:28.907Z,6.3
2023-03-16T12:34:45.967Z,6.4
2023-03-16T12:35:58.004Z,6.2
2023-03-16T12:37:10.067Z,6.2
2023-03-16T12:38:18.014Z,6.3
2023-03-16T12:39:35.187Z,6.4
2023-03-16T12:40:49.723Z,6.2
2023-03-16T12:41:59.474Z,6.3
2023-03-16T12:43:16.795Z,6.3
2023-03-16T12:44:26.527Z,6.2
2023-03-16T12:45:38.589Z,6.4
2023-03-16T12:46:55.766Z,6.5
2023-03-16T12:48:12.957Z,6.7
2023-03-16T12:49:25.026Z,6.9
2023-03-16T12:50:31.845Z,7
2023-03-16T12:51:38.795Z,7.1
2023-03-16T12:52:45.617Z,7.3
2023-03-16T12:53:52.440Z,7.3
2023-03-16T12:54:59.238Z,7.1
2023-03-16T12:56:08.933Z,7.3
2023-03-16T12:57:15.693Z,7.3
2023-03-16T12:58:22.466Z,7.1
2023-03-16T12:59:29.402Z,7
2023-03-16T13:00:44.077Z,7.1
2023-03-16T13:01:50.925Z,7
2023-03-16T13:03:00.545Z,6.7
2023-03-16T13:04:07.553Z,6.5
2023-03-16T13:05:17.116Z,6.6
2023-03-16T13:06:36.267Z,6.7
2023-03-16T13:07:41.094Z,6.8
2023-03-16T13:08:50.540Z,6.9
2023-03-16T13:10:00.630Z,6.7
2023-03-16T13:11:10.536Z,6.6
2023-03-16T13:12:20.318Z,6.6
2023-03-16T13:13:30.011Z,6.5
2023-03-16T13:14:36.898Z,6.5
2023-03-16T13:15:47.746Z,6.7
2023-03-16T13:16:55.855Z,6.8
2023-03-16T13:18:07.698Z,6.8
2023-03-16T13:19:17.478Z,6.8
2023-03-16T13:20:31.914Z,6.8
2023-03-16T13:21:42.327Z,6.7
2023-03-16T13:22:50.198Z,6.8
2023-03-16T13:24:07.371Z,6.9
2023-03-16T13:25:25.569Z,6.6
2023-03-16T13:26:32.407Z,6.8
2023-03-16T13:27:41.067Z,6.9
2023-03-16T13:28:56.072Z,7.1
2023-03-16T13:30:03.023Z,7.1
2023-03-16T13:31:20.264Z,7
2023-03-16T13:32:30.058Z,7.2
2023-03-16T13:33:37.088Z,7.3
2023-03-16T13:34:43.971Z,7.4
2023-03-16T13:35:53.744Z,7.2
2023-03-16T13:37:00.480Z,7.3
2023-03-16T13:38:07.312Z,7.3
2023-03-16T13:39:17.187Z,7.1
2023-03-16T13:40:24.072Z,6.6
2023-03-16T13:41:30.995Z,6.6
2023-03-16T13:42:37.912Z,6.8
2023-03-16T13:43:44.802Z,6.9
2023-03-16T13:44:51.600Z,6.9
2023-03-16T13:45:58.481Z,6.9
2023-03-16T13:47:05.270Z,7
2023-03-16T13:48:17.231Z,7
2023-03-16T13:49:24.058Z,6.5
2023-03-16T13:50:31.318Z,6.6
2023-03-16T13:51:37.903Z,6.7
2023-03-16T13:52:44.727Z,7
2023-03-16T13:53:54.375Z,6.8
2023-03-16T13:55:01.250Z,6.9
2023-03-16T13:56:13.331Z,6.7
2023-03-16T13:57:20.927Z,6.9
2023-03-16T13:58:35.236Z,7
2023-03-16T13:59:39.847Z,7
2023-03-16T14:00:46.668Z,7.2
2023-03-16T14:01:53.597Z,7.4
2023-03-16T14:03:00.681Z,7.1
2023-03-16T14:04:12.636Z,7.3
2023-03-16T14:05:19.522Z,7.3
2023-03-16T14:06:26.422Z,7.4
2023-03-16T14:07:33.263Z,7.7
2023-03-16T14:08:41.035Z,7.7
2023-03-16T14:09:47.843Z,7.6
2023-03-16T14:10:54.747Z,7.8
2023-03-16T14:12:01.604Z,7.8
2023-03-16T14:13:08.536Z,7.7
2023-03-16T14:14:25.708Z,7.7
2023-03-16T14:15:34.606Z,7.5
2023-03-16T14:16:41.384Z,7.7
2023-03-16T14:17:48.181Z,7.9
2023-03-16T14:18:55.007Z,8
2023-03-16T14:20:01.892Z,7.7
2023-03-16T14:21:09.124Z,7.8
2023-03-16T14:22:16.073Z,7.9
2023-03-16T14:23:23.048Z,7.8
2023-03-16T14:24:29.896Z,7.8
2023-03-16T14:25:36.777Z,7.9
2023-03-16T14:26:43.575Z,7.9
2023-03-16T14:27:50.469Z,8.1
2023-03-16T14:29:02.496Z,7.8
2023-03-16T14:30:10.652Z,7.9
2023-03-16T14:31:17.626Z,8.1
2023-03-16T14:32:24.478Z,8.1
2023-03-16T14:33:31.268Z,8.2
2023-03-16T14:34:38.136Z,8.1
2023-03-16T14:35:45.119Z,8.1
2023-03-16T14:36:52.160Z,8
2023-03-16T14:38:09.360Z,8.1
2023-03-16T14:39:26.811Z,8.1
2023-03-16T14:40:33.600Z,8
2023-03-16T14:41:40.414Z,8.1
2023-03-16T14:42:47.336Z,8
2023-03-16T14:43:54.168Z,7.8
2023-03-16T14:45:01.361Z,7.8
2023-03-16T14:46:08.449Z,7.9
2023-03-16T14:47:15.094Z,7.9
2023-03-16T14:48:24.677Z,8
2023-03-16T14:49:31.476Z,8.1
2023-03-16T14:50:38.658Z,8.1
2023-03-16T14:51:45.471Z,8.1
2023-03-16T14:52:52.518Z,8.1
2023-03-16T14:53:59.583Z,8
2023-03-16T14:55:06.475Z,8
2023-03-16T14:56:13.381Z,8.2
2023-03-16T14:57:20.149Z,8.2
2023-03-16T14:58:27.061Z,8.1
2023-03-16T14:59:34.050Z,7.9
2023-03-16T15:00:52.217Z,7.8
2023-03-16T15:01:47.609Z,7.9
2023-03-16T15:02:54.404Z,7.8
2023-03-16T15:04:01.237Z,7.5
2023-03-16T15:05:08.050Z,7.5
2023-03-16T15:06:14.802Z,7.5
2023-03-16T15:07:21.644Z,7.6
2023-03-16T15:08:28.403Z,7.6
2023-03-16T15:09:35.194Z,7.4
2023-03-16T15:10:42.062Z,7.3
2023-03-16T15:11:48.796Z,7.3
2023-03-16T15:12:55.660Z,7.4
2023-03-16T15:14:02.507Z,7.5
2023-03-16T15:15:09.296Z,7.6
2023-03-16T15:16:18.826Z,7.4
2023-03-16T15:17:25.592Z,7.4
2023-03-16T15:18:32.404Z,7.3
2023-03-16T15:19:39.177Z,7.3
2023-03-16T15:20:46.082Z,7.3
2023-03-16T15:21:52.835Z,7.4
2023-03-16T15:22:59.764Z,7.4
2023-03-16T15:24:06.818Z,7.4
2023-03-16T15:25:13.628Z,7.4
2023-03-16T15:26:21.444Z,7.4
2023-03-16T15:27:27.212Z,7.4
2023-03-16T15:28:34.010Z,7.4
2023-03-16T15:29:41.018Z,7.4
2023-03-16T15:30:47.791Z,7.3
2023-03-16T15:31:54.889Z,7.4
2023-03-16T15:33:01.520Z,7.3
2023-03-16T15:34:08.343Z,7.4
2023-03-16T15:35:15.183Z,7.4
2023-03-16T15:36:22.078Z,7.4
2023-03-16T15:37:28.866Z,7.3
2023-03-16T15:38:35.659Z,7.3
2023-03-16T15:39:42.447Z,7.4
2023-03-16T15:40:49.371Z,7.3
2023-03-16T15:41:56.171Z,7.2
2023-03-16T15:43:03.072Z,7.2
2023-03-16T15:44:12.791Z,7
2023-03-16T15:45:19.604Z,7
2023-03-16T15:46:26.393Z,7.1
2023-03-16T15:47:33.383Z,7.1
2023-03-16T15:48:40.355Z,7
2023-03-16T15:49:48.273Z,6.8
2023-03-16T15:50:54.158Z,6.9
2023-03-16T15:52:03.694Z,6.9